createdAt,value
2016-08-31T00:06:17.110Z,30.1
2016-08-31T00:17:16.947Z,29.5
2016-08-31T00:28:17.549Z,29.6
2016-08-31T00:39:16.444Z,29.8
2016-08-31T00:50:16.578Z,29.4
2016-08-31T01:01:17.907Z,29
2016-08-31T01:12:16.939Z,29.2
2016-08-31T01:23:17.004Z,28.8
2016-08-31T01:34:16.717Z,28.9
2016-08-31T01:45:16.728Z,29.1
2016-08-31T01:56:17.310Z,28.8
2016-08-31T02:07:17.114Z,29
2016-08-31T02:18:17.763Z,29
2016-08-31T02:29:16.966Z,28.2
2016-08-31T02:40:17.370Z,28.3
2016-08-31T02:51:17.248Z,28.7
2016-08-31T03:02:17.126Z,28.8
2016-08-31T03:13:16.858Z,28.9
2016-08-31T03:24:16.656Z,28.9
2016-08-31T03:35:16.226Z,27.9
2016-08-31T03:46:16.705Z,28.3
2016-08-31T03:57:16.588Z,28.2
2016-08-31T04:08:17.706Z,27.7
2016-08-31T04:19:16.606Z,27.3
2016-08-31T04:30:16.721Z,27.2
2016-08-31T04:41:16.599Z,27.4
2016-08-31T04:52:16.885Z,27.3
2016-08-31T05:03:17.027Z,27.4
2016-08-31T05:14:16.399Z,27.3
2016-08-31T05:25:17.403Z,27.7
2016-08-31T05:36:16.949Z,27.5
2016-08-31T05:47:16.902Z,28.3
2016-08-31T05:58:19.838Z,28.6
2016-08-31T06:09:17.148Z,28.9
2016-08-31T06:20:17.475Z,29
2016-08-31T06:31:16.166Z,29.5
2016-08-31T06:42:17.039Z,30.2
2016-08-31T06:53:16.647Z,29.9
2016-08-31T07:04:16.860Z,30.9
2016-08-31T07:15:17.172Z,30.9
2016-08-31T07:26:16.827Z,31.3
2016-08-31T07:37:16.720Z,31.7
2016-08-31T07:48:18.155Z,32.2
2016-08-31T07:59:16.977Z,32.5
2016-08-31T08:10:16.936Z,32.9
2016-08-31T08:21:16.791Z,33.3
2016-08-31T08:32:16.715Z,33.6
2016-08-31T08:43:18.120Z,34.1
2016-08-31T08:54:16.099Z,33.3
2016-08-31T09:05:16.197Z,34.1
2016-08-31T09:16:16.653Z,34.3
2016-08-31T09:27:17.073Z,34.8
2016-08-31T09:38:17.509Z,35
2016-08-31T09:49:16.620Z,34.9
2016-08-31T10:00:16.360Z,35.2
2016-08-31T10:11:16.969Z,35.7
2016-08-31T10:22:16.416Z,36.1
2016-08-31T10:33:17.531Z,35.6
2016-08-31T10:44:16.924Z,36.3
2016-08-31T10:55:16.617Z,35.9
2016-08-31T11:06:17.377Z,36
2016-08-31T11:17:16.823Z,36.5
2016-08-31T11:28:17.816Z,36.6
2016-08-31T11:39:16.555Z,37.7
2016-08-31T11:50:17.515Z,37.6
2016-08-31T12:01:16.360Z,37.4
2016-08-31T12:12:16.899Z,38
2016-08-31T12:23:17.670Z,37.4
2016-08-31T12:34:16.859Z,37.2
2016-08-31T12:45:16.507Z,38.1
2016-08-31T12:56:16.892Z,37.6
2016-08-31T13:07:16.671Z,38
2016-08-31T13:18:17.513Z,37.9
2016-08-31T13:29:16.691Z,37.7
2016-08-31T13:40:17.267Z,38.1
2016-08-31T13:51:16.242Z,38
2016-08-31T14:02:16.913Z,42.6
2016-08-31T14:13:17.627Z,42.9
2016-08-31T14:24:16.976Z,43.3
2016-08-31T14:35:16.666Z,44.1
2016-08-31T14:46:16.716Z,45.3
2016-08-31T14:57:16.375Z,46.1
2016-08-31T15:08:17.375Z,43
2016-08-31T15:19:16.822Z,43
2016-08-31T15:30:17.576Z,44
2016-08-31T15:41:17.392Z,43.8
2016-08-31T15:52:16.988Z,42.9
2016-08-31T16:03:17.135Z,41.9
2016-08-31T16:14:17.253Z,42.6
2016-08-31T16:25:16.932Z,42.1
2016-08-31T16:36:17.170Z,41.9
2016-08-31T16:47:17.271Z,41.4
2016-08-31T16:58:17.955Z,41.3
2016-08-31T17:09:16.859Z,39.9
2016-08-31T17:20:17.389Z,39.8
2016-08-31T17:31:16.469Z,39.3
2016-08-31T17:42:16.605Z,38.7
2016-08-31T17:53:16.895Z,38
2016-08-31T18:04:16.941Z,36.9
2016-08-31T18:15:16.148Z,36.5
2016-08-31T18:26:16.980Z,36.8
2016-08-31T18:37:16.420Z,35.9
2016-08-31T18:48:19.864Z,35.8
2016-08-31T18:59:16.858Z,35
2016-08-31T19:10:17.264Z,35
2016-08-31T19:21:16.985Z,35.2
2016-08-31T19:32:16.871Z,34.7
2016-08-31T19:43:17.261Z,35.1
2016-08-31T19:54:18.107Z,34.8
2016-08-31T20:05:16.341Z,34.8
2016-08-31T20:16:17.206Z,34.5
2016-08-31T20:27:16.620Z,34
2016-08-31T20:38:17.757Z,33
2016-08-31T20:49:16.506Z,33.5
2016-08-31T21:00:17.360Z,33.3
2016-08-31T21:11:16.586Z,32.2
2016-08-31T21:22:16.297Z,32.4
2016-08-31T21:33:17.108Z,32.6
2016-08-31T21:44:16.987Z,32.4
2016-08-31T21:55:16.306Z,32.2
2016-08-31T22:06:16.150Z,31.1
2016-08-31T22:17:17.257Z,31.9
2016-08-31T22:28:17.500Z,31.6
2016-08-31T22:39:16.321Z,31.6
2016-08-31T22:50:17.239Z,31.5
2016-08-31T23:01:16.208Z,31.5
2016-08-31T23:12:16.615Z,31.8
2016-08-31T23:23:17.125Z,31
2016-08-31T23:34:16.405Z,30.9
2016-08-31T23:45:17.018Z,30.8
2016-08-31T23:56:16.760Z,31.3
